Time;durP1;ratioP1;P1;durP2;ratioP2;P2;SDS_P1;SDS_P2;PMS_P1;PMS_P2;Temp;Humidity;BMP_temperature;BMP_pressure;BME280_temperature;BME280_humidity;BME280_pressure;Samples;Min_cycle;Max_cycle;Signal;HPM_P1;HPM_P2
2023/06/19 00:01:23;;;;;;;5.50;5.20;;;;;;;;;;5084977;28;20200;-70
2023/06/19 00:03:51;;;;;;;6.43;5.85;;;;;;;;;;5084873;28;20202;-70
2023/06/19 00:06:17;;;;;;;5.68;5.35;;;;;;;;;;5084775;28;20200;-70
2023/06/19 00:08:43;;;;;;;6.40;5.78;;;;;;;;;;5084437;28;20203;-70
2023/06/19 00:11:10;;;;;;;6.22;5.78;;;;;;;;;;5084535;28;20237;-70
2023/06/19 00:13:37;;;;;;;6.22;5.63;;;;;;;;;;5084920;28;20196;-70
2023/06/19 00:16:03;;;;;;;7.82;6.40;;;;;;;;;;5084945;28;20235;-70
2023/06/19 00:18:29;;;;;;;6.20;5.55;;;;;;;;;;5084246;28;20196;-70
2023/06/19 00:20:57;;;;;;;6.45;5.90;;;;;;;;;;5084347;28;20281;-70
2023/06/19 00:23:23;;;;;;;11.35;6.15;;;;;;;;;;5084343;28;20503;-70
2023/06/19 00:25:50;;;;;;;6.63;6.00;;;;;;;;;;5084372;28;20242;-70
2023/06/19 00:28:19;;;;;;;6.32;5.82;;;;;;;;;;5084334;28;20239;-71
2023/06/19 00:30:46;;;;;;;6.18;5.63;;;;;;;;;;5084698;28;20192;-71
2023/06/19 00:33:12;;;;;;;8.93;5.65;;;;;;;;;;5084253;28;20196;-71
2023/06/19 00:35:38;;;;;;;6.63;6.03;;;;;;;;;;5084171;28;20196;-70
2023/06/19 00:38:06;;;;;;;6.55;5.95;;;;;;;;;;5083902;28;20203;-70
2023/06/19 00:40:34;;;;;;;6.18;5.70;;;;;;;;;;5084224;28;20243;-70
2023/06/19 00:43:00;;;;;;;6.40;5.80;;;;;;;;;;5084219;28;20246;-70
2023/06/19 00:45:27;;;;;;;6.18;5.68;;;;;;;;;;5083854;28;20200;-70
2023/06/19 00:47:54;;;;;;;6.95;6.20;;;;;;;;;;5083624;28;20213;-70
2023/06/19 00:50:20;;;;;;;6.45;5.80;;;;;;;;;;5083887;28;20241;-70
2023/06/19 00:52:47;;;;;;;6.30;5.68;;;;;;;;;;5083777;28;20496;-70
2023/06/19 00:55:15;;;;;;;5.70;5.30;;;;;;;;;;5084058;28;20257;-70
2023/06/19 00:57:42;;;;;;;6.05;5.65;;;;;;;;;;5084148;28;20499;-70
2023/06/19 01:00:09;;;;;;;5.97;5.57;;;;;;;;;;5083887;28;20219;-70
2023/06/19 01:02:35;;;;;;;6.00;5.60;;;;;;;;;;5082933;28;20271;-70
2023/06/19 01:05:02;;;;;;;7.68;5.90;;;;;;;;;;5083655;28;20196;-71
2023/06/19 01:07:32;;;;;;;8.80;6.18;;;;;;;;;;5083336;28;20204;-71
2023/06/19 01:10:00;;;;;;;6.10;5.50;;;;;;;;;;5083558;28;20229;-71
2023/06/19 01:12:30;;;;;;;6.55;6.05;;;;;;;;;;5083821;28;20204;-70
2023/06/19 01:14:58;;;;;;;6.32;5.72;;;;;;;;;;5083552;28;20192;-70
2023/06/19 01:17:25;;;;;;;6.40;5.60;;;;;;;;;;5083295;28;20199;-70
2023/06/19 01:19:51;;;;;;;6.05;5.55;;;;;;;;;;5082862;28;20437;-70
2023/06/19 01:22:26;;;;;;;6.03;5.40;;;;;;;;;;5083614;28;20342;-70
2023/06/19 01:24:52;;;;;;;5.68;5.28;;;;;;;;;;5083369;28;20195;-70
2023/06/19 01:27:18;;;;;;;6.40;5.90;;;;;;;;;;5083377;28;20219;-70
2023/06/19 01:29:44;;;;;;;6.00;5.53;;;;;;;;;;5082944;28;20204;-70
2023/06/19 01:32:14;;;;;;;6.30;5.38;;;;;;;;;;5083164;28;20218;-70
2023/06/19 01:34:40;;;;;;;8.25;6.28;;;;;;;;;;5083115;28;20250;-70
2023/06/19 01:37:07;;;;;;;6.75;6.03;;;;;;;;;;5083155;28;20266;-70
2023/06/19 01:39:36;;;;;;;6.82;6.22;;;;;;;;;;5082644;28;20253;-70
2023/06/19 01:42:03;;;;;;;6.45;5.88;;;;;;;;;;5082753;28;20196;-70
2023/06/19 01:44:29;;;;;;;6.65;6.03;;;;;;;;;;5083216;28;20827;-70
2023/06/19 01:46:56;;;;;;;6.47;5.97;;;;;;;;;;5083091;28;20371;-70
2023/06/19 01:49:22;;;;;;;6.40;5.70;;;;;;;;;;5082857;28;20200;-70
2023/06/19 01:51:48;;;;;;;7.38;5.85;;;;;;;;;;5082909;28;20196;-70
2023/06/19 01:54:14;;;;;;;6.65;6.15;;;;;;;;;;5082756;28;20199;-70
2023/06/19 01:56:42;;;;;;;6.32;5.93;;;;;;;;;;5082633;28;20242;-70
2023/06/19 01:59:08;;;;;;;6.63;5.93;;;;;;;;;;5082477;28;20225;-70
2023/06/19 02:01:35;;;;;;;6.10;5.47;;;;;;;;;;5082644;28;20226;-70
2023/06/19 02:04:02;;;;;;;6.22;5.82;;;;;;;;;;5082840;28;20196;-70
2023/06/19 02:06:28;;;;;;;6.45;5.85;;;;;;;;;;5082363;28;20195;-70
2023/06/19 02:08:54;;;;;;;7.50;6.38;;;;;;;;;;5082246;28;20204;-70
2023/06/19 02:11:20;;;;;;;6.38;5.88;;;;;;;;;;5082361;28;20195;-70
2023/06/19 02:13:48;;;;;;;6.72;6.22;;;;;;;;;;5082172;28;20242;-70
2023/06/19 02:16:14;;;;;;;6.13;5.78;;;;;;;;;;5082229;28;20200;-70
2023/06/19 02:18:40;;;;;;;6.63;5.97;;;;;;;;;;5082280;28;20200;-70
2023/06/19 02:21:07;;;;;;;7.60;5.90;;;;;;;;;;5082210;28;20224;-70
2023/06/19 02:23:33;;;;;;;5.97;5.40;;;;;;;;;;5082176;28;20239;-70
2023/06/19 02:26:00;;;;;;;6.45;5.85;;;;;;;;;;5082037;28;20424;-70
2023/06/19 02:28:26;;;;;;;6.95;6.28;;;;;;;;;;5082083;28;20261;-70
2023/06/19 02:30:54;;;;;;;5.78;5.28;;;;;;;;;;5082289;28;20238;-70
2023/06/19 02:33:21;;;;;;;5.88;5.47;;;;;;;;;;5082139;28;20195;-70
2023/06/19 02:35:47;;;;;;;5.55;5.22;;;;;;;;;;5082195;28;20204;-70
2023/06/19 02:38:14;;;;;;;7.53;5.68;;;;;;;;;;5081793;28;20217;-70
2023/06/19 02:40:40;;;;;;;5.35;4.97;;;;;;;;;;5081953;28;20539;-70
2023/06/19 02:43:07;;;;;;;5.40;5.10;;;;;;;;;;5082218;28;20561;-70
2023/06/19 02:45:33;;;;;;;5.10;4.70;;;;;;;;;;5082310;28;20511;-70
2023/06/19 02:48:00;;;;;;;4.43;4.07;;;;;;;;;;5081827;28;20267;-70
2023/06/19 02:50:27;;;;;;;6.10;4.80;;;;;;;;;;5082021;28;20245;-70
2023/06/19 02:52:53;;;;;;;5.15;4.65;;;;;;;;;;5081763;28;20561;-70
2023/06/19 02:55:19;;;;;;;4.90;4.50;;;;;;;;;;5081767;28;20402;-70
2023/06/19 02:57:46;;;;;;;5.57;4.28;;;;;;;;;;5081565;28;20199;-71
2023/06/19 03:00:12;;;;;;;5.13;4.25;;;;;;;;;;5081975;28;20378;-70
2023/06/19 03:02:43;;;;;;;6.43;5.90;;;;;;;;;;5081840;28;20203;-70
2023/06/19 03:05:11;;;;;;;15.88;11.43;;;;;;;;;;5081856;28;20557;-70
2023/06/19 03:07:37;;;;;;;24.67;17.33;;;;;;;;;;5081552;28;20204;-70
2023/06/19 03:10:04;;;;;;;17.45;13.27;;;;;;;;;;5081503;28;20200;-70
2023/06/19 03:12:30;;;;;;;13.23;11.05;;;;;;;;;;5081914;28;20200;-70
2023/06/19 03:14:57;;;;;;;8.60;7.80;;;;;;;;;;5081797;28;20195;-70
2023/06/19 03:17:24;;;;;;;6.97;6.03;;;;;;;;;;5081768;28;20267;-71
2023/06/19 03:19:50;;;;;;;5.85;5.38;;;;;;;;;;5081533;28;20196;-71
2023/06/19 03:22:18;;;;;;;8.50;6.43;;;;;;;;;;5081537;28;20451;-71
2023/06/19 03:24:44;;;;;;;9.05;5.40;;;;;;;;;;5081749;28;20242;-71
2023/06/19 03:27:10;;;;;;;9.23;8.32;;;;;;;;;;5084245;28;20258;-70
2023/06/19 03:29:36;;;;;;;5.45;4.95;;;;;;;;;;5085242;28;20200;-71
2023/06/19 03:32:03;;;;;;;6.72;5.47;;;;;;;;;;5085490;28;20192;-71
2023/06/19 03:34:29;;;;;;;6.55;5.72;;;;;;;;;;5085671;28;20233;-71
2023/06/19 03:36:55;;;;;;;4.50;4.20;;;;;;;;;;5085417;28;20200;-71
2023/06/19 03:39:23;;;;;;;8.73;4.03;;;;;;;;;;5085558;28;20196;-71
2023/06/19 03:41:49;;;;;;;4.30;4.07;;;;;;;;;;5085317;28;20224;-70
2023/06/19 03:44:15;;;;;;;7.13;4.38;;;;;;;;;;5085239;28;20234;-70
2023/06/19 03:46:42;;;;;;;5.05;4.63;;;;;;;;;;5085071;28;20549;-70
2023/06/19 03:49:09;;;;;;;4.45;4.15;;;;;;;;;;5084801;28;20393;-70
2023/06/19 03:51:35;;;;;;;4.15;3.97;;;;;;;;;;5084972;28;20200;-70
2023/06/19 03:54:02;;;;;;;5.30;4.80;;;;;;;;;;5085276;28;20543;-70
2023/06/19 03:56:29;;;;;;;4.20;4.00;;;;;;;;;;5084940;28;20196;-70
2023/06/19 03:58:55;;;;;;;4.30;3.92;;;;;;;;;;5084703;28;20243;-70
2023/06/19 04:01:22;;;;;;;6.15;5.55;;;;;;;;;;5084877;28;20253;-70
2023/06/19 04:03:48;;;;;;;3.58;3.45;;;;;;;;;;5084793;28;20200;-70
2023/06/19 04:06:14;;;;;;;4.45;4.20;;;;;;;;;;5084972;28;20200;-70
2023/06/19 04:08:40;;;;;;;4.05;3.75;;;;;;;;;;5084447;28;20250;-70
2023/06/19 04:11:07;;;;;;;4.57;4.28;;;;;;;;;;5084823;28;20199;-71
2023/06/19 04:13:34;;;;;;;8.85;4.50;;;;;;;;;;5084757;28;20208;-71
2023/06/19 04:16:00;;;;;;;3.63;3.50;;;;;;;;;;5084536;28;20201;-72
2023/06/19 04:18:27;;;;;;;4.15;3.95;;;;;;;;;;5084253;28;20200;-72
2023/06/19 04:20:53;;;;;;;4.65;4.38;;;;;;;;;;5084493;28;20247;-72
2023/06/19 04:23:19;;;;;;;4.30;3.92;;;;;;;;;;5084614;28;20203;-72
2023/06/19 04:25:46;;;;;;;4.18;3.88;;;;;;;;;;5084203;28;20195;-72
2023/06/19 04:28:12;;;;;;;4.15;3.60;;;;;;;;;;5083953;28;20261;-72
2023/06/19 04:30:40;;;;;;;4.40;4.03;;;;;;;;;;5084122;28;20230;-72
2023/06/19 04:33:08;;;;;;;4.15;3.78;;;;;;;;;;5084178;28;20196;-73
2023/06/19 04:35:34;;;;;;;3.65;3.50;;;;;;;;;;5084424;28;20200;-73
2023/06/19 04:38:01;;;;;;;4.32;4.13;;;;;;;;;;5082845;28;20213;-73
2023/06/19 04:40:27;;;;;;;5.07;4.72;;;;;;;;;;5084021;28;20196;-73
2023/06/19 04:42:54;;;;;;;4.40;4.20;;;;;;;;;;5084018;28;20200;-72
2023/06/19 04:45:20;;;;;;;5.53;4.40;;;;;;;;;;5083953;28;20219;-72
2023/06/19 04:47:48;;;;;;;4.93;4.50;;;;;;;;;;5083812;28;20550;-72
2023/06/19 04:50:17;;;;;;;5.32;4.93;;;;;;;;;;5084122;28;20488;-72
2023/06/19 04:52:43;;;;;;;5.50;5.03;;;;;;;;;;5084010;28;20192;-72
2023/06/19 04:55:10;;;;;;;4.88;4.55;;;;;;;;;;5083930;28;20200;-72
2023/06/19 04:57:36;;;;;;;5.05;4.53;;;;;;;;;;5083923;28;20263;-72
2023/06/19 05:00:03;;;;;;;5.47;4.28;;;;;;;;;;5083546;28;20200;-72
2023/06/19 05:02:31;;;;;;;6.80;4.82;;;;;;;;;;5083796;28;20595;-72
2023/06/19 05:05:02;;;;;;;7.60;4.75;;;;;;;;;;5083928;28;20522;-72
2023/06/19 05:07:28;;;;;;;4.78;4.47;;;;;;;;;;5083626;28;20204;-72
2023/06/19 05:09:54;;;;;;;4.55;4.25;;;;;;;;;;5083502;28;20196;-72
2023/06/19 05:12:20;;;;;;;4.32;3.92;;;;;;;;;;5083489;28;20230;-72
2023/06/19 05:14:47;;;;;;;5.93;4.38;;;;;;;;;;5077131;28;20200;-72
2023/06/19 05:17:13;;;;;;;4.00;3.80;;;;;;;;;;5074326;28;20253;-72
2023/06/19 05:19:39;;;;;;;3.72;3.47;;;;;;;;;;5078470;28;20208;-72
2023/06/19 05:22:07;;;;;;;4.75;3.97;;;;;;;;;;5062686;28;20224;-71
2023/06/19 05:24:33;;;;;;;4.55;4.22;;;;;;;;;;5058364;28;20201;-72
2023/06/19 05:27:00;;;;;;;5.15;4.18;;;;;;;;;;5063749;28;20524;-72
2023/06/19 05:29:26;;;;;;;4.40;3.85;;;;;;;;;;5074502;28;20516;-72
2023/06/19 05:31:52;;;;;;;8.13;4.13;;;;;;;;;;5074915;28;20212;-72
2023/06/19 05:34:18;;;;;;;4.03;3.63;;;;;;;;;;5075340;28;20212;-72
2023/06/19 05:36:46;;;;;;;3.50;3.30;;;;;;;;;;5075212;28;20536;-72
2023/06/19 05:39:14;;;;;;;4.22;3.35;;;;;;;;;;5075468;28;20204;-72
2023/06/19 05:41:41;;;;;;;3.97;3.50;;;;;;;;;;5074854;28;20231;-72
2023/06/19 05:44:07;;;;;;;3.70;3.40;;;;;;;;;;5075483;28;20291;-72
2023/06/19 05:46:33;;;;;;;3.22;2.95;;;;;;;;;;5075746;28;20207;-72
2023/06/19 05:49:00;;;;;;;5.35;3.47;;;;;;;;;;5074668;28;20211;-72
2023/06/19 05:51:26;;;;;;;4.32;3.78;;;;;;;;;;5075027;28;20516;-72
2023/06/19 05:53:52;;;;;;;3.53;3.33;;;;;;;;;;5074641;28;20219;-72
2023/06/19 05:56:20;;;;;;;3.25;3.10;;;;;;;;;;5074207;28;20220;-72
2023/06/19 05:58:46;;;;;;;3.10;2.90;;;;;;;;;;5073529;28;20257;-72
2023/06/19 06:01:12;;;;;;;3.33;3.13;;;;;;;;;;5074629;28;20228;-72
2023/06/19 06:03:39;;;;;;;3.78;3.33;;;;;;;;;;5074868;28;20257;-74
2023/06/19 06:06:05;;;;;;;3.75;3.25;;;;;;;;;;5074672;28;20435;-72
2023/06/19 06:08:31;;;;;;;4.88;3.20;;;;;;;;;;5074648;28;20215;-72
2023/06/19 06:10:58;;;;;;;3.60;3.40;;;;;;;;;;5074419;28;20671;-72
2023/06/19 06:13:25;;;;;;;3.47;3.25;;;;;;;;;;5074403;28;20253;-72
2023/06/19 06:15:52;;;;;;;3.78;3.58;;;;;;;;;;5074283;28;20233;-72
2023/06/19 06:18:18;;;;;;;3.20;3.10;;;;;;;;;;5074066;28;20220;-72
2023/06/19 06:20:44;;;;;;;3.60;3.40;;;;;;;;;;5073806;28;20212;-72
2023/06/19 06:23:10;;;;;;;4.47;2.85;;;;;;;;;;5074505;28;20235;-72
2023/06/19 06:25:37;;;;;;;6.22;3.38;;;;;;;;;;5074126;28;20216;-72
2023/06/19 06:28:03;;;;;;;6.03;3.42;;;;;;;;;;5073702;28;20356;-72
2023/06/19 06:30:31;;;;;;;3.53;3.33;;;;;;;;;;5074446;28;20207;-72
2023/06/19 06:32:58;;;;;;;5.82;3.75;;;;;;;;;;5074369;28;20405;-72
2023/06/19 06:35:24;;;;;;;6.00;3.70;;;;;;;;;;5074704;28;20498;-72
2023/06/19 06:37:50;;;;;;;3.67;3.15;;;;;;;;;;5073708;28;20208;-72
2023/06/19 06:40:16;;;;;;;3.78;3.33;;;;;;;;;;5073342;28;20567;-72
2023/06/19 06:42:42;;;;;;;3.65;3.17;;;;;;;;;;5074147;28;20224;-72
2023/06/19 06:45:09;;;;;;;3.50;3.20;;;;;;;;;;5073521;28;20277;-72
2023/06/19 06:47:37;;;;;;;4.05;3.63;;;;;;;;;;5074195;28;20208;-73
2023/06/19 06:50:03;;;;;;;3.58;3.35;;;;;;;;;;5073907;28;20215;-73
2023/06/19 06:52:30;;;;;;;3.47;3.28;;;;;;;;;;5074232;28;20557;-72
2023/06/19 06:54:56;;;;;;;3.70;3.40;;;;;;;;;;5073417;28;20235;-72
2023/06/19 06:57:23;;;;;;;3.13;3.03;;;;;;;;;;5074396;28;20397;-74
2023/06/19 06:59:49;;;;;;;3.40;3.20;;;;;;;;;;5074398;28;20463;-73
2023/06/19 07:02:15;;;;;;;5.18;2.90;;;;;;;;;;5077428;28;20450;-73
2023/06/19 07:04:43;;;;;;;3.20;3.00;;;;;;;;;;5078696;28;20523;-58
2023/06/19 07:07:09;;;;;;;4.60;3.15;;;;;;;;;;5077850;28;20535;-59
2023/06/19 07:09:35;;;;;;;3.13;2.92;;;;;;;;;;5077527;28;20207;-58
2023/06/19 07:12:04;;;;;;;3.25;3.05;;;;;;;;;;5077350;28;20273;-59
2023/06/19 07:14:30;;;;;;;3.30;3.15;;;;;;;;;;5078718;28;20604;-59
2023/06/19 07:16:56;;;;;;;3.00;2.90;;;;;;;;;;5078978;28;20426;-58
2023/06/19 07:19:22;;;;;;;3.35;3.15;;;;;;;;;;5078427;28;20257;-57
2023/06/19 07:21:51;;;;;;;3.35;3.10;;;;;;;;;;5078670;28;20298;-58
2023/06/19 07:24:17;;;;;;;2.50;2.38;;;;;;;;;;5079414;28;20243;-59
2023/06/19 07:26:44;;;;;;;2.15;2.05;;;;;;;;;;5078696;28;20480;-58
2023/06/19 07:29:10;;;;;;;3.10;2.42;;;;;;;;;;5078159;28;20429;-59
2023/06/19 07:31:36;;;;;;;2.97;2.78;;;;;;;;;;5078508;28;20257;-58
2023/06/19 07:34:02;;;;;;;3.28;2.70;;;;;;;;;;5078301;28;20261;-59
2023/06/19 07:36:29;;;;;;;2.88;2.67;;;;;;;;;;5078638;28;20225;-58
2023/06/19 07:38:56;;;;;;;4.75;2.70;;;;;;;;;;5078738;28;20211;-58
2023/06/19 07:41:22;;;;;;;2.35;2.15;;;;;;;;;;5077868;28;20203;-59
2023/06/19 07:43:49;;;;;;;2.08;2.00;;;;;;;;;;5078480;28;20218;-58
2023/06/19 07:46:16;;;;;;;2.13;2.03;;;;;;;;;;5078232;28;20281;-59
2023/06/19 07:48:43;;;;;;;2.47;2.38;;;;;;;;;;5078338;28;20282;-59
2023/06/19 07:51:10;;;;;;;2.20;2.10;;;;;;;;;;5078844;28;20220;-58
2023/06/19 07:53:36;;;;;;;2.00;2.00;;;;;;;;;;5078206;28;20215;-58
2023/06/19 07:56:04;;;;;;;1.80;1.80;;;;;;;;;;5077892;28;20204;-58
2023/06/19 07:58:30;;;;;;;1.90;1.77;;;;;;;;;;5078048;28;20585;-57
2023/06/19 08:00:57;;;;;;;2.15;2.05;;;;;;;;;;5078343;28;20562;-59
2023/06/19 08:03:24;;;;;;;2.75;2.22;;;;;;;;;;5077725;28;20247;-57
2023/06/19 08:05:50;;;;;;;2.58;1.98;;;;;;;;;;5078420;28;20208;-58
2023/06/19 08:08:16;;;;;;;2.88;2.15;;;;;;;;;;5078011;28;20220;-58
2023/06/19 08:10:42;;;;;;;2.40;2.00;;;;;;;;;;5078283;28;20214;-58
2023/06/19 08:13:11;;;;;;;4.13;2.13;;;;;;;;;;5077532;28;20212;-58
2023/06/19 08:15:37;;;;;;;2.10;1.90;;;;;;;;;;5077505;28;20601;-58
2023/06/19 08:18:03;;;;;;;2.10;2.00;;;;;;;;;;5078009;28;20519;-58
2023/06/19 08:20:30;;;;;;;2.17;1.98;;;;;;;;;;5078200;28;20449;-58
2023/06/19 08:22:56;;;;;;;2.20;2.10;;;;;;;;;;5077351;28;20295;-58
2023/06/19 08:25:23;;;;;;;2.22;2.20;;;;;;;;;;5077831;28;20211;-57
2023/06/19 08:27:50;;;;;;;2.10;2.00;;;;;;;;;;5076966;28;20550;-58
2023/06/19 08:30:17;;;;;;;1.95;1.90;;;;;;;;;;5077009;28;20218;-56
2023/06/19 08:32:44;;;;;;;2.67;2.50;;;;;;;;;;5077744;28;20204;-57
2023/06/19 08:35:10;;;;;;;2.38;2.30;;;;;;;;;;5076902;28;20211;-58
2023/06/19 08:37:36;;;;;;;5.20;2.00;;;;;;;;;;5077317;28;20220;-57
2023/06/19 08:40:06;;;;;;;1.90;1.90;;;;;;;;;;5076494;28;20212;-58
2023/06/19 08:42:32;;;;;;;2.35;2.35;;;;;;;;;;5077198;28;20234;-58
2023/06/19 08:44:58;;;;;;;2.15;2.05;;;;;;;;;;5077284;28;20535;-57
2023/06/19 08:47:31;;;;;;;2.20;2.10;;;;;;;;;;5076691;28;20212;-56
2023/06/19 08:49:58;;;;;;;2.13;2.03;;;;;;;;;;5077646;28;20216;-58
2023/06/19 08:52:25;;;;;;;1.85;1.85;;;;;;;;;;5077450;28;20200;-58
2023/06/19 08:54:51;;;;;;;3.72;2.00;;;;;;;;;;5076821;28;20258;-59
2023/06/19 08:57:18;;;;;;;3.20;1.88;;;;;;;;;;5076536;28;20214;-59
2023/06/19 08:59:48;;;;;;;1.90;1.80;;;;;;;;;;5076856;28;20596;-61
2023/06/19 09:02:14;;;;;;;2.05;2.05;;;;;;;;;;5077187;28;20231;-59
2023/06/19 09:04:42;;;;;;;1.80;1.75;;;;;;;;;;5076505;28;20435;-59
2023/06/19 09:07:09;;;;;;;2.75;1.90;;;;;;;;;;5076899;28;20436;-59
2023/06/19 09:09:35;;;;;;;2.55;1.75;;;;;;;;;;5077370;28;20265;-59
2023/06/19 09:12:02;;;;;;;2.20;2.10;;;;;;;;;;5076689;28;20204;-59
2023/06/19 09:14:34;;;;;;;1.98;1.88;;;;;;;;;;5077552;28;20543;-59
2023/06/19 09:17:02;;;;;;;4.18;2.10;;;;;;;;;;5076709;28;20227;-59
2023/06/19 09:19:28;;;;;;;2.20;2.10;;;;;;;;;;5077047;28;20216;-59
2023/06/19 09:21:59;;;;;;;2.00;1.90;;;;;;;;;;5076590;28;20218;-59
2023/06/19 09:24:33;;;;;;;2.20;2.15;;;;;;;;;;5076154;28;20219;-59
2023/06/19 09:27:05;;;;;;;2.08;1.85;;;;;;;;;;5076003;28;20210;-59
2023/06/19 09:29:32;;;;;;;1.70;1.70;;;;;;;;;;5076876;28;20258;-59
2023/06/19 09:31:58;;;;;;;1.95;1.60;;;;;;;;;;5076951;28;20216;-60
2023/06/19 09:34:25;;;;;;;2.80;1.60;;;;;;;;;;5076579;28;20211;-58
2023/06/19 09:36:51;;;;;;;1.80;1.70;;;;;;;;;;5077343;28;20523;-56
2023/06/19 09:39:19;;;;;;;1.88;1.88;;;;;;;;;;5076476;28;20239;-58
2023/06/19 09:41:47;;;;;;;2.03;1.92;;;;;;;;;;5076772;28;20216;-58
2023/06/19 09:44:14;;;;;;;1.70;1.70;;;;;;;;;;5077108;28;20243;-58
2023/06/19 09:46:41;;;;;;;2.03;1.85;;;;;;;;;;5076605;28;20231;-58
2023/06/19 09:49:08;;;;;;;3.08;1.60;;;;;;;;;;5076339;28;20219;-57
2023/06/19 09:51:38;;;;;;;2.00;1.90;;;;;;;;;;5076843;28;20200;-58
2023/06/19 09:54:06;;;;;;;4.13;2.00;;;;;;;;;;5076621;28;20462;-58
2023/06/19 09:56:34;;;;;;;2.00;1.90;;;;;;;;;;5076082;28;20216;-57
2023/06/19 09:59:01;;;;;;;2.00;1.90;;;;;;;;;;5076580;28;20212;-59
2023/06/19 10:01:28;;;;;;;2.38;1.90;;;;;;;;;;5076798;28;20524;-58
2023/06/19 10:04:03;;;;;;;2.20;1.67;;;;;;;;;;5076445;28;20582;-58
2023/06/19 10:06:29;;;;;;;1.80;1.80;;;;;;;;;;5075900;28;20219;-58
2023/06/19 10:08:56;;;;;;;4.35;1.90;;;;;;;;;;5075810;28;20524;-58
2023/06/19 10:11:24;;;;;;;1.70;1.70;;;;;;;;;;5075397;28;20211;-58
2023/06/19 10:13:51;;;;;;;1.60;1.60;;;;;;;;;;5076424;28;20275;-58
2023/06/19 10:16:21;;;;;;;1.77;1.77;;;;;;;;;;5076188;28;20245;-58
2023/06/19 10:18:48;;;;;;;1.70;1.70;;;;;;;;;;5075375;28;20523;-58
2023/06/19 10:21:16;;;;;;;1.80;1.80;;;;;;;;;;5075438;28;20272;-57
2023/06/19 10:23:43;;;;;;;1.88;1.70;;;;;;;;;;5075984;28;20318;-57
2023/06/19 10:26:09;;;;;;;1.67;1.60;;;;;;;;;;5075776;28;20310;-57
2023/06/19 10:28:35;;;;;;;1.65;1.55;;;;;;;;;;5075769;28;20227;-57
2023/06/19 10:31:04;;;;;;;1.65;1.65;;;;;;;;;;5075783;28;20215;-58
2023/06/19 10:33:32;;;;;;;3.00;2.90;;;;;;;;;;5075853;28;20208;-57
2023/06/19 10:35:59;;;;;;;4.20;1.67;;;;;;;;;;5075976;28;20258;-57
2023/06/19 10:38:26;;;;;;;2.08;1.98;;;;;;;;;;5075216;28;20208;-57
2023/06/19 10:40:52;;;;;;;2.67;1.55;;;;;;;;;;5075282;28;20216;-56
2023/06/19 10:43:20;;;;;;;1.83;1.73;;;;;;;;;;5075255;28;20223;-57
2023/06/19 10:45:46;;;;;;;1.95;1.58;;;;;;;;;;5075544;28;20212;-58
2023/06/19 10:48:19;;;;;;;2.78;1.70;;;;;;;;;;5075192;28;20246;-58
2023/06/19 10:50:45;;;;;;;2.28;2.00;;;;;;;;;;5074891;28;20216;-57
2023/06/19 10:53:11;;;;;;;1.55;1.55;;;;;;;;;;5076414;28;20464;-58
2023/06/19 10:55:37;;;;;;;2.00;1.90;;;;;;;;;;5072234;28;20735;-57
2023/06/19 10:58:04;;;;;;;1.92;1.75;;;;;;;;;;5070759;28;20208;-57
2023/06/19 11:00:31;;;;;;;2.78;1.58;;;;;;;;;;5062425;28;20219;-57
2023/06/19 11:02:57;;;;;;;2.25;2.05;;;;;;;;;;5055959;28;20555;-58
2023/06/19 11:05:27;;;;;;;2.28;2.17;;;;;;;;;;5070174;28;20313;-58
2023/06/19 11:07:54;;;;;;;1.95;1.80;;;;;;;;;;5074717;28;20227;-57
2023/06/19 11:10:21;;;;;;;2.30;2.28;;;;;;;;;;5075561;28;20211;-58
2023/06/19 11:12:47;;;;;;;2.30;2.20;;;;;;;;;;5074870;28;20430;-58
2023/06/19 11:15:13;;;;;;;2.40;2.30;;;;;;;;;;5075096;28;20473;-58
2023/06/19 11:17:39;;;;;;;2.50;2.40;;;;;;;;;;5075414;28;20531;-57
2023/06/19 11:20:10;;;;;;;2.42;2.20;;;;;;;;;;5074438;28;20230;-58
2023/06/19 11:22:39;;;;;;;2.47;2.17;;;;;;;;;;5075143;28;20218;-58
2023/06/19 11:25:07;;;;;;;2.10;2.10;;;;;;;;;;5074759;28;20212;-58
2023/06/19 11:27:34;;;;;;;2.28;2.10;;;;;;;;;;5074970;28;20798;-57
2023/06/19 11:30:04;;;;;;;2.80;2.40;;;;;;;;;;5075230;28;20215;-58
2023/06/19 11:32:31;;;;;;;1.80;1.70;;;;;;;;;;5075269;28;20222;-58
2023/06/19 11:34:58;;;;;;;3.33;2.10;;;;;;;;;;5074676;28;20216;-58
2023/06/19 11:37:24;;;;;;;3.95;2.20;;;;;;;;;;5075591;28;20538;-59
2023/06/19 11:39:52;;;;;;;3.70;2.10;;;;;;;;;;5074965;28;20269;-57
2023/06/19 11:42:18;;;;;;;2.35;2.15;;;;;;;;;;5074886;28;20535;-58
2023/06/19 11:44:54;;;;;;;2.10;1.95;;;;;;;;;;5074895;28;20285;-58
2023/06/19 11:47:20;;;;;;;2.20;1.90;;;;;;;;;;5076409;28;20211;-58
2023/06/19 11:49:48;;;;;;;2.70;1.90;;;;;;;;;;5078257;28;20246;-58
2023/06/19 11:52:14;;;;;;;2.42;2.20;;;;;;;;;;5078339;28;20216;-58
2023/06/19 11:54:40;;;;;;;2.40;2.30;;;;;;;;;;5078300;28;20261;-58
2023/06/19 11:57:11;;;;;;;2.28;2.10;;;;;;;;;;5078489;28;20212;-58
2023/06/19 11:59:38;;;;;;;2.08;2.08;;;;;;;;;;5078344;28;20463;-58
2023/06/19 12:02:04;;;;;;;3.03;2.08;;;;;;;;;;5078731;28;20408;-58
2023/06/19 12:04:30;;;;;;;3.15;2.08;;;;;;;;;;5078005;28;20573;-57
2023/06/19 12:06:57;;;;;;;2.70;2.38;;;;;;;;;;5077458;28;20208;-57
2023/06/19 12:09:23;;;;;;;4.70;2.65;;;;;;;;;;5078307;28;20226;-58
2023/06/19 12:11:49;;;;;;;2.72;2.50;;;;;;;;;;5078149;28;20561;-58
2023/06/19 12:14:18;;;;;;;2.97;2.53;;;;;;;;;;5078957;28;20250;-58
2023/06/19 12:16:44;;;;;;;2.58;2.15;;;;;;;;;;5078431;28;20257;-59
2023/06/19 12:19:10;;;;;;;2.42;2.33;;;;;;;;;;5077161;28;20216;-57
2023/06/19 12:21:36;;;;;;;2.83;2.63;;;;;;;;;;5077783;28;20211;-58
2023/06/19 12:24:03;;;;;;;2.60;2.50;;;;;;;;;;5077414;28;20239;-58
2023/06/19 12:26:29;;;;;;;2.17;2.17;;;;;;;;;;5077981;28;20208;-59
2023/06/19 12:28:55;;;;;;;2.53;2.40;;;;;;;;;;5078189;28;20239;-59
2023/06/19 12:31:23;;;;;;;2.42;2.33;;;;;;;;;;5079179;28;20212;-57
2023/06/19 12:33:49;;;;;;;2.60;2.40;;;;;;;;;;5079280;28;20208;-58
2023/06/19 12:36:15;;;;;;;2.30;2.20;;;;;;;;;;5079157;28;20265;-57
2023/06/19 12:38:42;;;;;;;2.60;2.50;;;;;;;;;;5076314;28;20258;-58
2023/06/19 12:41:08;;;;;;;2.60;2.47;;;;;;;;;;5077765;28;20207;-59
2023/06/19 12:43:34;;;;;;;2.40;2.30;;;;;;;;;;5077222;28;20231;-58
2023/06/19 12:46:01;;;;;;;2.58;2.17;;;;;;;;;;5077589;28;20216;-58
2023/06/19 12:48:28;;;;;;;3.13;2.58;;;;;;;;;;5077259;28;20208;-58
2023/06/19 12:50:55;;;;;;;2.47;2.38;;;;;;;;;;5077084;28;20227;-58
2023/06/19 12:53:26;;;;;;;2.33;2.25;;;;;;;;;;5076739;28;20278;-58
2023/06/19 12:55:52;;;;;;;2.38;2.20;;;;;;;;;;5077956;28;20241;-58
2023/06/19 12:58:18;;;;;;;2.63;2.42;;;;;;;;;;5076346;28;20430;-58
2023/06/19 13:00:44;;;;;;;3.70;2.40;;;;;;;;;;5076374;28;20212;-58
2023/06/19 13:03:11;;;;;;;2.30;2.20;;;;;;;;;;5077462;28;20211;-59
2023/06/19 13:05:38;;;;;;;2.40;2.30;;;;;;;;;;5077386;28;20250;-58
2023/06/19 13:08:05;;;;;;;2.63;2.42;;;;;;;;;;5077180;28;20238;-59
2023/06/19 13:10:31;;;;;;;2.88;2.78;;;;;;;;;;5077627;28;20245;-59
2023/06/19 13:12:58;;;;;;;3.67;2.50;;;;;;;;;;5077233;28;20253;-59
2023/06/19 13:15:24;;;;;;;2.67;2.53;;;;;;;;;;5076999;28;20212;-59
2023/06/19 13:17:50;;;;;;;3.00;2.63;;;;;;;;;;5076592;28;20457;-58
2023/06/19 13:20:16;;;;;;;3.90;2.55;;;;;;;;;;5076823;28;20216;-59
2023/06/19 13:22:44;;;;;;;5.00;2.35;;;;;;;;;;5076790;28;20250;-59
2023/06/19 13:25:10;;;;;;;2.00;2.00;;;;;;;;;;5077112;28;20268;-58
2023/06/19 13:27:37;;;;;;;2.47;2.38;;;;;;;;;;5076939;28;20266;-59
2023/06/19 13:30:03;;;;;;;2.28;2.00;;;;;;;;;;5077200;28;20208;-59
2023/06/19 13:32:29;;;;;;;2.20;2.10;;;;;;;;;;5076756;28;20253;-58
2023/06/19 13:34:56;;;;;;;2.25;2.22;;;;;;;;;;5076866;28;20253;-58
2023/06/19 13:37:23;;;;;;;2.00;2.00;;;;;;;;;;5076128;28;20550;-59
2023/06/19 13:39:51;;;;;;;2.53;2.33;;;;;;;;;;5076651;28;20521;-59
2023/06/19 13:42:17;;;;;;;3.00;2.72;;;;;;;;;;5075772;28;20487;-58
2023/06/19 13:44:43;;;;;;;2.75;2.55;;;;;;;;;;5075956;28;20759;-58
2023/06/19 13:47:09;;;;;;;2.60;2.50;;;;;;;;;;5076087;28;20212;-57
2023/06/19 13:49:35;;;;;;;2.15;2.13;;;;;;;;;;5075456;28;20220;-58
2023/06/19 13:52:02;;;;;;;2.60;2.40;;;;;;;;;;5076204;28;20531;-57
2023/06/19 13:54:29;;;;;;;2.60;2.42;;;;;;;;;;5076473;28;20527;-58
2023/06/19 13:56:56;;;;;;;2.53;2.42;;;;;;;;;;5076540;28;20254;-58
2023/06/19 13:59:22;;;;;;;5.55;2.38;;;;;;;;;;5076307;28;20219;-59
2023/06/19 14:01:49;;;;;;;14.43;12.82;;;;;;;;;;5076155;28;20254;-59
2023/06/19 14:04:15;;;;;;;14.90;13.27;;;;;;;;;;5076303;28;20239;-58
2023/06/19 14:06:43;;;;;;;5.70;3.83;;;;;;;;;;5076553;28;20246;-58
2023/06/19 14:09:09;;;;;;;3.40;3.20;;;;;;;;;;5076288;28;20228;-58
2023/06/19 14:11:36;;;;;;;4.28;4.07;;;;;;;;;;5076587;28;20208;-58
2023/06/19 14:14:03;;;;;;;2.53;2.28;;;;;;;;;;5076957;28;20208;-58
2023/06/19 14:16:30;;;;;;;2.42;2.25;;;;;;;;;;5076699;28;20211;-59
2023/06/19 14:18:56;;;;;;;2.53;2.47;;;;;;;;;;5076682;28;20211;-59
2023/06/19 14:21:23;;;;;;;2.10;1.90;;;;;;;;;;5076754;28;20467;-58
2023/06/19 14:23:49;;;;;;;2.55;2.35;;;;;;;;;;5076212;28;20220;-58
2023/06/19 14:26:15;;;;;;;2.40;2.30;;;;;;;;;;5077008;28;20215;-59
2023/06/19 14:28:41;;;;;;;3.25;2.30;;;;;;;;;;5076228;28;20559;-59
2023/06/19 14:31:09;;;;;;;2.08;1.98;;;;;;;;;;5076273;28;20603;-74
2023/06/19 14:33:36;;;;;;;2.15;2.03;;;;;;;;;;5076312;28;20222;-75
2023/06/19 14:36:03;;;;;;;2.97;2.30;;;;;;;;;;5076191;28;20519;-75
2023/06/19 14:38:33;;;;;;;2.47;2.33;;;;;;;;;;5076494;28;20211;-75
2023/06/19 14:41:00;;;;;;;2.17;2.08;;;;;;;;;;5076373;28;20251;-75